Cedars, PA (19423)

3:07 PM EST on February 10, 2016 (GMT -0500)
Rockwell Terrace in Biltmore Estates | | Change Station
CLOSE
Current Station
Personal Weather Station
Location: Skippack, PA
Elevation: 249 ft
Nearby Weather Stations

Elev 249 ft 40.23 °N, 75.39 °W | Updated 0 second ago

Overcast
Overcast
33.1 °F
Feels Like 28 °F
N
4.9
Wind Variable Wind from WNW
Gusts 7.4 mph

Today
High -- | Low -- °F
--% Chance of Precip.
Yesterday
High -- | Low -- °F
Precip. -- in
Pressure 29.72 in
Visibility 10.0 miles
Clouds Overcast 4100 ft
Windchill 28 °F
Dew Point 14 °F
Humidity 45%
Rainfall 0.05 in
Snow Depth Not available.
7:01 AM 5:30 PM
Waxing Crescent, 7% visible
METAR KPTW 101954Z AUTO 30010G19KT 10SM OVC041 00/M08 A2972 RMK AO2 SLP062 T00001083
Pressure 29.72 in
Visibility 10.0 miles
Clouds Overcast 4100 ft
Windchill 28 °F
Dew Point 14 °F
Humidity 45%
Rainfall 0.05 in
Snow Depth Not available.
7:01 AM 5:30 PM
Waxing Crescent, 7% visible
METAR KPTW 101954Z AUTO 30010G19KT 10SM OVC041 00/M08 A2972 RMK AO2 SLP062 T00001083

10-Day Weather Forecast

Almanac

Astronomy

Feb. 10, 2016 Rise Set
Actual Time
Civil Twilight
Nautical Twilight
Astronomical Twilight
Moon
Length of Visible Light
Length of Day
Tomorrow will be .
, % of the Moon is Illuminated

Today's Extremes

State Highs State Lows

Community

WunderPhotos

Upload Photos

1,891,929 photos uploaded!

WunderBlog® & News

Nearby

Air Quality

  Air Quality AQ Index Pollutant
Not available.

Snow Depth

Station Depth Elevation

Earthquake Activity

City Distance Mag. Time & Date
Minimum magnitude displayed is 2.5.

Coastal Water Temperatures

Place Temperature

Stations

Nearby Weather Stations

Station Location Temp. Windchill Dew Point Humidity Wind Precip. Elev Updated Type
                   

Watches & Warnings

There are currently no watches in effect.